sensor_id;sensor_type;location;lat;lon;timestamp;P1;durP1;ratioP1;P2;durP2;ratioP2
81504;SDS011;70907;52.514;5.726;2023-06-22T00:00:40;27.63;;;16.27;;
81504;SDS011;70907;52.514;5.726;2023-06-22T00:03:07;26.70;;;15.73;;
81504;SDS011;70907;52.514;5.726;2023-06-22T00:05:32;28.52;;;16.65;;
81504;SDS011;70907;52.514;5.726;2023-06-22T00:08:01;25.83;;;14.90;;
81504;SDS011;70907;52.514;5.726;2023-06-22T00:10:28;24.08;;;16.38;;
81504;SDS011;70907;52.514;5.726;2023-06-22T00:12:53;30.47;;;16.40;;
81504;SDS011;70907;52.514;5.726;2023-06-22T00:15:19;26.83;;;15.97;;
81504;SDS011;70907;52.514;5.726;2023-06-22T00:17:45;26.33;;;16.13;;
81504;SDS011;70907;52.514;5.726;2023-06-22T00:20:10;28.42;;;16.83;;
81504;SDS011;70907;52.514;5.726;2023-06-22T00:22:36;27.98;;;17.88;;
81504;SDS011;70907;52.514;5.726;2023-06-22T00:25:04;30.00;;;17.70;;
81504;SDS011;70907;52.514;5.726;2023-06-22T00:27:31;30.13;;;17.17;;
81504;SDS011;70907;52.514;5.726;2023-06-22T00:29:56;27.03;;;16.27;;
81504;SDS011;70907;52.514;5.726;2023-06-22T00:32:22;29.90;;;16.77;;
81504;SDS011;70907;52.514;5.726;2023-06-22T00:34:47;30.15;;;17.48;;
81504;SDS011;70907;52.514;5.726;2023-06-22T00:37:13;32.92;;;18.15;;
81504;SDS011;70907;52.514;5.726;2023-06-22T00:39:38;26.10;;;16.03;;
81504;SDS011;70907;52.514;5.726;2023-06-22T00:42:03;26.80;;;16.47;;
81504;SDS011;70907;52.514;5.726;2023-06-22T00:44:29;26.55;;;15.90;;
81504;SDS011;70907;52.514;5.726;2023-06-22T00:46:54;25.70;;;15.30;;
81504;SDS011;70907;52.514;5.726;2023-06-22T00:49:20;27.10;;;16.23;;
81504;SDS011;70907;52.514;5.726;2023-06-22T00:51:45;25.57;;;16.33;;
81504;SDS011;70907;52.514;5.726;2023-06-22T00:54:12;28.92;;;15.88;;
81504;SDS011;70907;52.514;5.726;2023-06-22T00:56:39;26.90;;;17.20;;
81504;SDS011;70907;52.514;5.726;2023-06-22T00:59:05;25.67;;;16.02;;
81504;SDS011;70907;52.514;5.726;2023-06-22T01:01:31;30.52;;;18.65;;
81504;SDS011;70907;52.514;5.726;2023-06-22T01:03:57;27.67;;;17.63;;
81504;SDS011;70907;52.514;5.726;2023-06-22T01:06:26;28.05;;;17.67;;
81504;SDS011;70907;52.514;5.726;2023-06-22T01:09:07;26.40;;;16.10;;
81504;SDS011;70907;52.514;5.726;2023-06-22T01:12:02;30.90;;;18.05;;
81504;SDS011;70907;52.514;5.726;2023-06-22T01:14:49;28.77;;;16.33;;
81504;SDS011;70907;52.514;5.726;2023-06-22T01:17:17;29.88;;;18.27;;
81504;SDS011;70907;52.514;5.726;2023-06-22T01:19:45;30.27;;;17.48;;
81504;SDS011;70907;52.514;5.726;2023-06-22T01:22:15;29.98;;;18.73;;
81504;SDS011;70907;52.514;5.726;2023-06-22T01:24:48;31.48;;;18.60;;
81504;SDS011;70907;52.514;5.726;2023-06-22T01:27:32;28.00;;;17.30;;
81504;SDS011;70907;52.514;5.726;2023-06-22T01:30:10;28.77;;;16.55;;
81504;SDS011;70907;52.514;5.726;2023-06-22T01:32:38;28.35;;;16.67;;
81504;SDS011;70907;52.514;5.726;2023-06-22T01:35:06;29.00;;;16.50;;
81504;SDS011;70907;52.514;5.726;2023-06-22T01:37:33;26.85;;;15.75;;
81504;SDS011;70907;52.514;5.726;2023-06-22T01:40:01;26.83;;;15.57;;
81504;SDS011;70907;52.514;5.726;2023-06-22T01:42:28;27.20;;;17.25;;
81504;SDS011;70907;52.514;5.726;2023-06-22T01:44:54;25.15;;;15.98;;
81504;SDS011;70907;52.514;5.726;2023-06-22T01:47:21;28.00;;;16.40;;
81504;SDS011;70907;52.514;5.726;2023-06-22T01:49:47;26.30;;;16.95;;
81504;SDS011;70907;52.514;5.726;2023-06-22T01:52:13;22.80;;;15.35;;
81504;SDS011;70907;52.514;5.726;2023-06-22T01:54:39;25.92;;;17.15;;
81504;SDS011;70907;52.514;5.726;2023-06-22T01:57:05;26.42;;;15.68;;
81504;SDS011;70907;52.514;5.726;2023-06-22T01:59:37;25.33;;;15.18;;
81504;SDS011;70907;52.514;5.726;2023-06-22T02:02:09;25.60;;;14.95;;
81504;SDS011;70907;52.514;5.726;2023-06-22T02:07:28;26.25;;;17.35;;
81504;SDS011;70907;52.514;5.726;2023-06-22T02:09:57;26.13;;;14.93;;
81504;SDS011;70907;52.514;5.726;2023-06-22T02:12:25;28.17;;;17.85;;
81504;SDS011;70907;52.514;5.726;2023-06-22T02:14:53;23.33;;;14.98;;
81504;SDS011;70907;52.514;5.726;2023-06-22T02:17:19;28.27;;;17.73;;
81504;SDS011;70907;52.514;5.726;2023-06-22T02:19:44;28.90;;;17.52;;
81504;SDS011;70907;52.514;5.726;2023-06-22T02:22:10;27.20;;;15.85;;
81504;SDS011;70907;52.514;5.726;2023-06-22T02:24:37;24.60;;;16.35;;
81504;SDS011;70907;52.514;5.726;2023-06-22T02:27:03;28.85;;;17.25;;
81504;SDS011;70907;52.514;5.726;2023-06-22T02:29:29;26.58;;;16.15;;
81504;SDS011;70907;52.514;5.726;2023-06-22T02:31:54;33.27;;;19.50;;
81504;SDS011;70907;52.514;5.726;2023-06-22T02:34:21;33.22;;;18.58;;
81504;SDS011;70907;52.514;5.726;2023-06-22T02:36:47;32.75;;;19.42;;
81504;SDS011;70907;52.514;5.726;2023-06-22T02:41:47;30.92;;;18.55;;
81504;SDS011;70907;52.514;5.726;2023-06-22T02:44:12;29.10;;;17.53;;
81504;SDS011;70907;52.514;5.726;2023-06-22T02:46:37;30.00;;;19.43;;
81504;SDS011;70907;52.514;5.726;2023-06-22T02:49:03;31.93;;;17.47;;
81504;SDS011;70907;52.514;5.726;2023-06-22T02:51:28;36.63;;;20.37;;
81504;SDS011;70907;52.514;5.726;2023-06-22T02:53:53;29.97;;;18.57;;
81504;SDS011;70907;52.514;5.726;2023-06-22T02:56:22;35.22;;;19.65;;
81504;SDS011;70907;52.514;5.726;2023-06-22T02:58:50;33.45;;;19.90;;
81504;SDS011;70907;52.514;5.726;2023-06-22T03:01:16;34.88;;;20.00;;
81504;SDS011;70907;52.514;5.726;2023-06-22T03:03:41;36.30;;;19.20;;
81504;SDS011;70907;52.514;5.726;2023-06-22T03:06:06;35.73;;;20.90;;
81504;SDS011;70907;52.514;5.726;2023-06-22T03:08:32;35.60;;;21.23;;
81504;SDS011;70907;52.514;5.726;2023-06-22T03:10:57;32.40;;;20.47;;
81504;SDS011;70907;52.514;5.726;2023-06-22T03:13:23;40.50;;;21.92;;
81504;SDS011;70907;52.514;5.726;2023-06-22T03:15:49;40.20;;;22.88;;
81504;SDS011;70907;52.514;5.726;2023-06-22T03:18:14;43.70;;;24.40;;
81504;SDS011;70907;52.514;5.726;2023-06-22T03:20:40;44.95;;;23.73;;
81504;SDS011;70907;52.514;5.726;2023-06-22T03:23:06;43.08;;;24.50;;
81504;SDS011;70907;52.514;5.726;2023-06-22T03:25:31;43.93;;;24.50;;
81504;SDS011;70907;52.514;5.726;2023-06-22T03:27:58;44.67;;;23.80;;
81504;SDS011;70907;52.514;5.726;2023-06-22T03:30:24;44.05;;;24.85;;
81504;SDS011;70907;52.514;5.726;2023-06-22T03:32:50;46.40;;;26.50;;
81504;SDS011;70907;52.514;5.726;2023-06-22T03:35:16;48.33;;;26.75;;
81504;SDS011;70907;52.514;5.726;2023-06-22T03:37:41;51.75;;;26.80;;
81504;SDS011;70907;52.514;5.726;2023-06-22T03:40:07;51.53;;;28.03;;
81504;SDS011;70907;52.514;5.726;2023-06-22T03:42:35;50.05;;;28.83;;
81504;SDS011;70907;52.514;5.726;2023-06-22T03:45:01;47.05;;;27.63;;
81504;SDS011;70907;52.514;5.726;2023-06-22T03:47:28;49.25;;;28.00;;
81504;SDS011;70907;52.514;5.726;2023-06-22T03:49:53;46.45;;;26.60;;
81504;SDS011;70907;52.514;5.726;2023-06-22T03:52:20;45.90;;;27.52;;
81504;SDS011;70907;52.514;5.726;2023-06-22T03:54:48;47.72;;;27.67;;
81504;SDS011;70907;52.514;5.726;2023-06-22T03:57:13;46.80;;;26.63;;
81504;SDS011;70907;52.514;5.726;2023-06-22T03:59:39;45.13;;;26.65;;
81504;SDS011;70907;52.514;5.726;2023-06-22T04:02:04;49.57;;;28.07;;
81504;SDS011;70907;52.514;5.726;2023-06-22T04:04:29;42.77;;;25.43;;
81504;SDS011;70907;52.514;5.726;2023-06-22T04:06:55;47.03;;;26.35;;
81504;SDS011;70907;52.514;5.726;2023-06-22T04:09:20;48.13;;;27.93;;
81504;SDS011;70907;52.514;5.726;2023-06-22T04:11:46;47.70;;;27.02;;
81504;SDS011;70907;52.514;5.726;2023-06-22T04:14:12;48.28;;;30.33;;
81504;SDS011;70907;52.514;5.726;2023-06-22T04:16:37;46.55;;;26.98;;
81504;SDS011;70907;52.514;5.726;2023-06-22T04:19:03;43.35;;;26.38;;
81504;SDS011;70907;52.514;5.726;2023-06-22T04:21:28;52.22;;;29.58;;
81504;SDS011;70907;52.514;5.726;2023-06-22T04:23:54;47.88;;;28.15;;
81504;SDS011;70907;52.514;5.726;2023-06-22T04:26:19;53.75;;;28.25;;
81504;SDS011;70907;52.514;5.726;2023-06-22T04:28:46;39.63;;;24.90;;
81504;SDS011;70907;52.514;5.726;2023-06-22T04:31:16;52.58;;;28.38;;
81504;SDS011;70907;52.514;5.726;2023-06-22T04:33:43;52.50;;;31.42;;
81504;SDS011;70907;52.514;5.726;2023-06-22T04:36:08;51.10;;;28.80;;
81504;SDS011;70907;52.514;5.726;2023-06-22T04:38:38;50.53;;;30.77;;
81504;SDS011;70907;52.514;5.726;2023-06-22T04:41:03;45.17;;;26.70;;
81504;SDS011;70907;52.514;5.726;2023-06-22T04:43:29;41.97;;;27.60;;
81504;SDS011;70907;52.514;5.726;2023-06-22T04:45:57;41.28;;;24.95;;
81504;SDS011;70907;52.514;5.726;2023-06-22T04:48:29;36.35;;;25.20;;
81504;SDS011;70907;52.514;5.726;2023-06-22T04:50:57;36.92;;;24.20;;
81504;SDS011;70907;52.514;5.726;2023-06-22T04:53:30;36.95;;;22.48;;
81504;SDS011;70907;52.514;5.726;2023-06-22T04:55:56;33.63;;;23.13;;
81504;SDS011;70907;52.514;5.726;2023-06-22T04:58:21;31.15;;;21.75;;
81504;SDS011;70907;52.514;5.726;2023-06-22T05:00:47;31.27;;;21.37;;
81504;SDS011;70907;52.514;5.726;2023-06-22T05:03:12;31.58;;;22.58;;
81504;SDS011;70907;52.514;5.726;2023-06-22T05:05:38;32.83;;;21.58;;
81504;SDS011;70907;52.514;5.726;2023-06-22T05:08:03;34.70;;;21.73;;
81504;SDS011;70907;52.514;5.726;2023-06-22T05:10:31;30.35;;;21.60;;
81504;SDS011;70907;52.514;5.726;2023-06-22T05:12:57;28.70;;;20.55;;
81504;SDS011;70907;52.514;5.726;2023-06-22T05:15:23;31.97;;;22.00;;
81504;SDS011;70907;52.514;5.726;2023-06-22T05:17:51;28.95;;;21.70;;
81504;SDS011;70907;52.514;5.726;2023-06-22T05:20:17;31.55;;;21.48;;
81504;SDS011;70907;52.514;5.726;2023-06-22T05:22:43;31.83;;;21.90;;
81504;SDS011;70907;52.514;5.726;2023-06-22T05:25:09;32.42;;;22.65;;
81504;SDS011;70907;52.514;5.726;2023-06-22T05:27:36;33.30;;;22.75;;
81504;SDS011;70907;52.514;5.726;2023-06-22T05:30:05;30.27;;;22.63;;
81504;SDS011;70907;52.514;5.726;2023-06-22T05:32:32;33.75;;;23.67;;
81504;SDS011;70907;52.514;5.726;2023-06-22T05:34:57;32.58;;;22.25;;
81504;SDS011;70907;52.514;5.726;2023-06-22T05:37:22;34.53;;;21.60;;
81504;SDS011;70907;52.514;5.726;2023-06-22T05:39:47;33.70;;;22.63;;
81504;SDS011;70907;52.514;5.726;2023-06-22T05:42:13;29.93;;;21.13;;
81504;SDS011;70907;52.514;5.726;2023-06-22T05:44:38;30.70;;;21.23;;
81504;SDS011;70907;52.514;5.726;2023-06-22T05:47:05;30.05;;;20.83;;
81504;SDS011;70907;52.514;5.726;2023-06-22T05:49:31;33.38;;;22.92;;
81504;SDS011;70907;52.514;5.726;2023-06-22T05:51:58;32.47;;;21.58;;
81504;SDS011;70907;52.514;5.726;2023-06-22T05:54:23;34.30;;;21.80;;
81504;SDS011;70907;52.514;5.726;2023-06-22T05:56:49;29.50;;;21.67;;
81504;SDS011;70907;52.514;5.726;2023-06-22T05:59:14;30.03;;;20.83;;
81504;SDS011;70907;52.514;5.726;2023-06-22T06:01:39;29.73;;;22.37;;
81504;SDS011;70907;52.514;5.726;2023-06-22T06:04:05;28.95;;;21.10;;
81504;SDS011;70907;52.514;5.726;2023-06-22T06:06:33;28.52;;;21.40;;
81504;SDS011;70907;52.514;5.726;2023-06-22T06:08:59;28.17;;;20.75;;
81504;SDS011;70907;52.514;5.726;2023-06-22T06:11:25;28.27;;;20.55;;
81504;SDS011;70907;52.514;5.726;2023-06-22T06:13:51;32.05;;;21.77;;
81504;SDS011;70907;52.514;5.726;2023-06-22T06:16:16;27.48;;;19.67;;
81504;SDS011;70907;52.514;5.726;2023-06-22T06:18:41;33.07;;;22.50;;
81504;SDS011;70907;52.514;5.726;2023-06-22T06:21:07;30.27;;;21.65;;
81504;SDS011;70907;52.514;5.726;2023-06-22T06:23:32;30.10;;;20.50;;
81504;SDS011;70907;52.514;5.726;2023-06-22T06:25:57;30.20;;;21.07;;
81504;SDS011;70907;52.514;5.726;2023-06-22T06:28:24;30.70;;;20.93;;
81504;SDS011;70907;52.514;5.726;2023-06-22T06:30:50;27.88;;;19.80;;
81504;SDS011;70907;52.514;5.726;2023-06-22T06:33:16;26.42;;;18.95;;
81504;SDS011;70907;52.514;5.726;2023-06-22T06:35:42;27.27;;;18.60;;
81504;SDS011;70907;52.514;5.726;2023-06-22T06:38:07;30.10;;;20.00;;
81504;SDS011;70907;52.514;5.726;2023-06-22T06:40:33;25.53;;;19.00;;
81504;SDS011;70907;52.514;5.726;2023-06-22T06:42:58;26.67;;;18.73;;
81504;SDS011;70907;52.514;5.726;2023-06-22T06:45:23;23.47;;;17.47;;
81504;SDS011;70907;52.514;5.726;2023-06-22T06:47:50;24.73;;;18.15;;
81504;SDS011;70907;52.514;5.726;2023-06-22T06:50:17;23.55;;;16.20;;
81504;SDS011;70907;52.514;5.726;2023-06-22T06:52:43;22.98;;;16.80;;
81504;SDS011;70907;52.514;5.726;2023-06-22T06:55:09;24.15;;;16.92;;
81504;SDS011;70907;52.514;5.726;2023-06-22T06:57:38;23.67;;;18.23;;
81504;SDS011;70907;52.514;5.726;2023-06-22T07:00:09;24.55;;;16.92;;
81504;SDS011;70907;52.514;5.726;2023-06-22T07:02:40;24.17;;;16.90;;
81504;SDS011;70907;52.514;5.726;2023-06-22T07:05:06;23.23;;;17.73;;
81504;SDS011;70907;52.514;5.726;2023-06-22T07:07:32;19.08;;;15.55;;
81504;SDS011;70907;52.514;5.726;2023-06-22T07:09:57;22.15;;;15.05;;
81504;SDS011;70907;52.514;5.726;2023-06-22T07:12:23;24.42;;;17.30;;
81504;SDS011;70907;52.514;5.726;2023-06-22T07:14:48;20.27;;;15.90;;
81504;SDS011;70907;52.514;5.726;2023-06-22T07:17:13;21.67;;;13.98;;
81504;SDS011;70907;52.514;5.726;2023-06-22T07:19:39;18.53;;;14.43;;
81504;SDS011;70907;52.514;5.726;2023-06-22T07:22:05;22.85;;;14.18;;
81504;SDS011;70907;52.514;5.726;2023-06-22T07:24:30;19.70;;;12.73;;
81504;SDS011;70907;52.514;5.726;2023-06-22T07:26:57;18.65;;;14.30;;
81504;SDS011;70907;52.514;5.726;2023-06-22T07:29:24;19.38;;;13.35;;
81504;SDS011;70907;52.514;5.726;2023-06-22T07:31:50;21.48;;;13.93;;
81504;SDS011;70907;52.514;5.726;2023-06-22T07:34:16;20.15;;;13.32;;
81504;SDS011;70907;52.514;5.726;2023-06-22T07:36:42;17.42;;;13.57;;
81504;SDS011;70907;52.514;5.726;2023-06-22T07:39:08;19.48;;;14.82;;
81504;SDS011;70907;52.514;5.726;2023-06-22T07:41:34;19.73;;;13.47;;
81504;SDS011;70907;52.514;5.726;2023-06-22T07:43:59;16.90;;;13.67;;
81504;SDS011;70907;52.514;5.726;2023-06-22T07:46:24;21.50;;;13.83;;
81504;SDS011;70907;52.514;5.726;2023-06-22T07:48:50;18.98;;;15.07;;
81504;SDS011;70907;52.514;5.726;2023-06-22T07:51:15;18.50;;;13.30;;
81504;SDS011;70907;52.514;5.726;2023-06-22T07:53:41;17.17;;;13.90;;
81504;SDS011;70907;52.514;5.726;2023-06-22T07:56:09;15.50;;;12.82;;
81504;SDS011;70907;52.514;5.726;2023-06-22T07:58:35;17.20;;;13.30;;
81504;SDS011;70907;52.514;5.726;2023-06-22T08:01:01;17.30;;;13.00;;
81504;SDS011;70907;52.514;5.726;2023-06-22T08:03:26;23.13;;;13.95;;
81504;SDS011;70907;52.514;5.726;2023-06-22T08:05:51;17.13;;;13.73;;
81504;SDS011;70907;52.514;5.726;2023-06-22T08:08:17;16.63;;;12.30;;
81504;SDS011;70907;52.514;5.726;2023-06-22T08:10:42;18.25;;;13.90;;
81504;SDS011;70907;52.514;5.726;2023-06-22T08:13:08;16.25;;;12.73;;
81504;SDS011;70907;52.514;5.726;2023-06-22T08:15:33;19.75;;;14.23;;
81504;SDS011;70907;52.514;5.726;2023-06-22T08:17:58;18.77;;;13.00;;
81504;SDS011;70907;52.514;5.726;2023-06-22T08:20:25;19.65;;;12.02;;
81504;SDS011;70907;52.514;5.726;2023-06-22T08:22:51;17.60;;;13.50;;
81504;SDS011;70907;52.514;5.726;2023-06-22T08:25:16;15.53;;;12.10;;
81504;SDS011;70907;52.514;5.726;2023-06-22T08:27:44;17.77;;;12.10;;
81504;SDS011;70907;52.514;5.726;2023-06-22T08:30:11;17.48;;;13.88;;
81504;SDS011;70907;52.514;5.726;2023-06-22T08:32:37;16.25;;;12.55;;
81504;SDS011;70907;52.514;5.726;2023-06-22T08:35:02;18.77;;;13.57;;
81504;SDS011;70907;52.514;5.726;2023-06-22T08:37:28;16.38;;;13.15;;
81504;SDS011;70907;52.514;5.726;2023-06-22T08:39:58;19.52;;;13.70;;
81504;SDS011;70907;52.514;5.726;2023-06-22T08:42:24;14.57;;;12.20;;
81504;SDS011;70907;52.514;5.726;2023-06-22T08:44:50;15.70;;;12.18;;
81504;SDS011;70907;52.514;5.726;2023-06-22T08:47:15;16.40;;;12.37;;
81504;SDS011;70907;52.514;5.726;2023-06-22T08:49:41;13.97;;;11.50;;
81504;SDS011;70907;52.514;5.726;2023-06-22T08:52:06;16.40;;;12.13;;
81504;SDS011;70907;52.514;5.726;2023-06-22T08:54:32;13.90;;;11.13;;
81504;SDS011;70907;52.514;5.726;2023-06-22T08:56:59;16.10;;;11.95;;
81504;SDS011;70907;52.514;5.726;2023-06-22T08:59:25;16.45;;;12.75;;
81504;SDS011;70907;52.514;5.726;2023-06-22T09:01:50;14.57;;;11.43;;
81504;SDS011;70907;52.514;5.726;2023-06-22T09:04:15;15.23;;;11.60;;
81504;SDS011;70907;52.514;5.726;2023-06-22T09:06:41;15.95;;;11.57;;
81504;SDS011;70907;52.514;5.726;2023-06-22T09:09:12;14.63;;;10.45;;
81504;SDS011;70907;52.514;5.726;2023-06-22T09:11:38;16.23;;;11.73;;
81504;SDS011;70907;52.514;5.726;2023-06-22T09:14:03;16.73;;;12.80;;
81504;SDS011;70907;52.514;5.726;2023-06-22T09:16:29;16.80;;;12.52;;
81504;SDS011;70907;52.514;5.726;2023-06-22T09:18:54;13.50;;;11.32;;
81504;SDS011;70907;52.514;5.726;2023-06-22T09:21:20;17.60;;;11.00;;
81504;SDS011;70907;52.514;5.726;2023-06-22T09:23:45;13.53;;;11.27;;
81504;SDS011;70907;52.514;5.726;2023-06-22T09:26:15;17.02;;;11.70;;
81504;SDS011;70907;52.514;5.726;2023-06-22T09:28:40;15.95;;;12.80;;
81504;SDS011;70907;52.514;5.726;2023-06-22T09:31:05;18.50;;;12.03;;
81504;SDS011;70907;52.514;5.726;2023-06-22T09:33:31;12.77;;;11.15;;
81504;SDS011;70907;52.514;5.726;2023-06-22T09:35:57;15.70;;;10.93;;
81504;SDS011;70907;52.514;5.726;2023-06-22T09:38:22;14.68;;;11.07;;
81504;SDS011;70907;52.514;5.726;2023-06-22T09:40:47;13.60;;;10.77;;
81504;SDS011;70907;52.514;5.726;2023-06-22T09:43:13;14.53;;;11.37;;
81504;SDS011;70907;52.514;5.726;2023-06-22T09:45:38;14.63;;;10.30;;
81504;SDS011;70907;52.514;5.726;2023-06-22T09:48:04;16.70;;;10.73;;
81504;SDS011;70907;52.514;5.726;2023-06-22T09:50:29;15.60;;;12.13;;
81504;SDS011;70907;52.514;5.726;2023-06-22T09:52:54;13.80;;;10.93;;
81504;SDS011;70907;52.514;5.726;2023-06-22T09:55:20;13.80;;;11.10;;
81504;SDS011;70907;52.514;5.726;2023-06-22T09:57:47;14.38;;;10.60;;
81504;SDS011;70907;52.514;5.726;2023-06-22T10:00:13;13.20;;;11.43;;
81504;SDS011;70907;52.514;5.726;2023-06-22T10:02:43;14.88;;;11.18;;
81504;SDS011;70907;52.514;5.726;2023-06-22T10:05:08;15.85;;;11.25;;
81504;SDS011;70907;52.514;5.726;2023-06-22T10:07:34;13.40;;;10.33;;
81504;SDS011;70907;52.514;5.726;2023-06-22T10:09:59;12.23;;;9.23;;
81504;SDS011;70907;52.514;5.726;2023-06-22T10:12:26;13.87;;;11.03;;
81504;SDS011;70907;52.514;5.726;2023-06-22T10:14:52;15.38;;;10.73;;
81504;SDS011;70907;52.514;5.726;2023-06-22T10:17:17;13.93;;;11.05;;
81504;SDS011;70907;52.514;5.726;2023-06-22T10:19:43;14.93;;;10.80;;
81504;SDS011;70907;52.514;5.726;2023-06-22T10:22:08;14.73;;;9.37;;
81504;SDS011;70907;52.514;5.726;2023-06-22T10:24:33;11.63;;;8.90;;
81504;SDS011;70907;52.514;5.726;2023-06-22T10:26:59;11.43;;;9.87;;
81504;SDS011;70907;52.514;5.726;2023-06-22T10:29:24;13.25;;;9.90;;
81504;SDS011;70907;52.514;5.726;2023-06-22T10:31:50;12.27;;;9.55;;
81504;SDS011;70907;52.514;5.726;2023-06-22T10:34:15;11.70;;;9.07;;
81504;SDS011;70907;52.514;5.726;2023-06-22T10:36:40;14.33;;;9.63;;
81504;SDS011;70907;52.514;5.726;2023-06-22T10:39:05;12.43;;;8.87;;
81504;SDS011;70907;52.514;5.726;2023-06-22T10:41:31;11.63;;;8.80;;
81504;SDS011;70907;52.514;5.726;2023-06-22T10:43:56;10.27;;;7.65;;
81504;SDS011;70907;52.514;5.726;2023-06-22T10:46:24;12.90;;;9.30;;
81504;SDS011;70907;52.514;5.726;2023-06-22T10:48:50;13.43;;;9.30;;
81504;SDS011;70907;52.514;5.726;2023-06-22T10:51:16;14.15;;;9.27;;
81504;SDS011;70907;52.514;5.726;2023-06-22T10:53:41;11.10;;;8.23;;
81504;SDS011;70907;52.514;5.726;2023-06-22T10:56:08;13.55;;;9.13;;
81504;SDS011;70907;52.514;5.726;2023-06-22T10:58:33;10.80;;;8.83;;
81504;SDS011;70907;52.514;5.726;2023-06-22T11:00:58;10.53;;;7.10;;
81504;SDS011;70907;52.514;5.726;2023-06-22T11:03:24;7.68;;;6.60;;
81504;SDS011;70907;52.514;5.726;2023-06-22T11:05:49;9.27;;;7.47;;
81504;SDS011;70907;52.514;5.726;2023-06-22T11:08:14;8.68;;;6.78;;
81504;SDS011;70907;52.514;5.726;2023-06-22T11:10:40;10.75;;;7.55;;
81504;SDS011;70907;52.514;5.726;2023-06-22T11:13:05;10.00;;;6.60;;
81504;SDS011;70907;52.514;5.726;2023-06-22T11:15:34;10.70;;;6.70;;
81504;SDS011;70907;52.514;5.726;2023-06-22T11:18:00;11.25;;;6.45;;
81504;SDS011;70907;52.514;5.726;2023-06-22T11:20:25;11.63;;;7.23;;
81504;SDS011;70907;52.514;5.726;2023-06-22T11:22:50;9.83;;;6.93;;
81504;SDS011;70907;52.514;5.726;2023-06-22T11:25:16;10.80;;;6.47;;
81504;SDS011;70907;52.514;5.726;2023-06-22T11:27:41;9.93;;;6.60;;
81504;SDS011;70907;52.514;5.726;2023-06-22T11:30:08;10.27;;;5.77;;
81504;SDS011;70907;52.514;5.726;2023-06-22T11:32:34;8.07;;;5.80;;
81504;SDS011;70907;52.514;5.726;2023-06-22T11:34:59;7.68;;;6.40;;
81504;SDS011;70907;52.514;5.726;2023-06-22T11:37:25;8.30;;;6.70;;
81504;SDS011;70907;52.514;5.726;2023-06-22T11:39:50;8.43;;;6.05;;
81504;SDS011;70907;52.514;5.726;2023-06-22T11:42:16;7.75;;;5.30;;
81504;SDS011;70907;52.514;5.726;2023-06-22T11:44:42;8.57;;;6.77;;
81504;SDS011;70907;52.514;5.726;2023-06-22T11:47:08;9.50;;;6.38;;
81504;SDS011;70907;52.514;5.726;2023-06-22T11:49:33;10.13;;;6.13;;
81504;SDS011;70907;52.514;5.726;2023-06-22T11:51:59;8.30;;;6.43;;
81504;SDS011;70907;52.514;5.726;2023-06-22T11:54:24;8.93;;;6.17;;
81504;SDS011;70907;52.514;5.726;2023-06-22T11:56:49;7.63;;;5.57;;
81504;SDS011;70907;52.514;5.726;2023-06-22T11:59:15;9.20;;;7.20;;
81504;SDS011;70907;52.514;5.726;2023-06-22T12:01:40;8.43;;;6.57;;
81504;SDS011;70907;52.514;5.726;2023-06-22T12:04:05;9.87;;;7.07;;
81504;SDS011;70907;52.514;5.726;2023-06-22T12:06:31;8.70;;;6.33;;
81504;SDS011;70907;52.514;5.726;2023-06-22T12:08:57;7.82;;;5.63;;
81504;SDS011;70907;52.514;5.726;2023-06-22T12:11:23;8.45;;;5.72;;
81504;SDS011;70907;52.514;5.726;2023-06-22T12:13:48;10.03;;;6.83;;
81504;SDS011;70907;52.514;5.726;2023-06-22T12:16:13;9.57;;;6.57;;
81504;SDS011;70907;52.514;5.726;2023-06-22T12:18:39;9.50;;;6.33;;
81504;SDS011;70907;52.514;5.726;2023-06-22T12:21:04;8.90;;;6.33;;
81504;SDS011;70907;52.514;5.726;2023-06-22T12:23:29;10.47;;;6.27;;
81504;SDS011;70907;52.514;5.726;2023-06-22T12:25:54;7.57;;;5.70;;
81504;SDS011;70907;52.514;5.726;2023-06-22T12:28:20;8.37;;;6.87;;
81504;SDS011;70907;52.514;5.726;2023-06-22T12:30:45;8.65;;;6.22;;
81504;SDS011;70907;52.514;5.726;2023-06-22T12:33:11;9.27;;;6.17;;
81504;SDS011;70907;52.514;5.726;2023-06-22T12:35:36;9.63;;;6.17;;
81504;SDS011;70907;52.514;5.726;2023-06-22T12:38:01;10.77;;;6.80;;
81504;SDS011;70907;52.514;5.726;2023-06-22T12:40:28;8.27;;;6.63;;
81504;SDS011;70907;52.514;5.726;2023-06-22T12:42:53;8.10;;;6.43;;
81504;SDS011;70907;52.514;5.726;2023-06-22T12:45:19;8.20;;;6.70;;
81504;SDS011;70907;52.514;5.726;2023-06-22T12:47:46;9.82;;;7.63;;
81504;SDS011;70907;52.514;5.726;2023-06-22T12:50:11;10.67;;;7.70;;
81504;SDS011;70907;52.514;5.726;2023-06-22T12:52:37;12.23;;;7.20;;
81504;SDS011;70907;52.514;5.726;2023-06-22T12:55:06;9.18;;;7.95;;
81504;SDS011;70907;52.514;5.726;2023-06-22T12:57:31;10.23;;;7.22;;
81504;SDS011;70907;52.514;5.726;2023-06-22T12:59:57;10.80;;;7.53;;
81504;SDS011;70907;52.514;5.726;2023-06-22T13:02:23;10.38;;;8.13;;
81504;SDS011;70907;52.514;5.726;2023-06-22T13:04:48;9.70;;;7.43;;
81504;SDS011;70907;52.514;5.726;2023-06-22T13:07:14;12.00;;;8.77;;
81504;SDS011;70907;52.514;5.726;2023-06-22T13:09:39;10.00;;;8.40;;
81504;SDS011;70907;52.514;5.726;2023-06-22T13:12:04;11.97;;;9.13;;
81504;SDS011;70907;52.514;5.726;2023-06-22T13:14:30;13.48;;;9.50;;
81504;SDS011;70907;52.514;5.726;2023-06-22T13:16:55;11.40;;;9.07;;
81504;SDS011;70907;52.514;5.726;2023-06-22T13:19:21;10.10;;;9.00;;
81504;SDS011;70907;52.514;5.726;2023-06-22T13:21:46;11.00;;;9.07;;
81504;SDS011;70907;52.514;5.726;2023-06-22T13:24:12;11.10;;;9.00;;
81504;SDS011;70907;52.514;5.726;2023-06-22T13:26:37;13.40;;;9.10;;
81504;SDS011;70907;52.514;5.726;2023-06-22T13:29:02;11.32;;;8.55;;
81504;SDS011;70907;52.514;5.726;2023-06-22T13:31:28;11.27;;;7.87;;
81504;SDS011;70907;52.514;5.726;2023-06-22T13:33:53;11.63;;;9.35;;
81504;SDS011;70907;52.514;5.726;2023-06-22T13:36:19;12.10;;;10.07;;
81504;SDS011;70907;52.514;5.726;2023-06-22T13:38:44;14.13;;;9.38;;
81504;SDS011;70907;52.514;5.726;2023-06-22T13:41:10;12.70;;;8.40;;
81504;SDS011;70907;52.514;5.726;2023-06-22T13:43:35;13.40;;;9.73;;
81504;SDS011;70907;52.514;5.726;2023-06-22T13:46:00;11.03;;;9.23;;
81504;SDS011;70907;52.514;5.726;2023-06-22T13:48:26;15.17;;;10.10;;
81504;SDS011;70907;52.514;5.726;2023-06-22T13:50:53;11.30;;;9.98;;
81504;SDS011;70907;52.514;5.726;2023-06-22T13:53:18;14.23;;;11.00;;
81504;SDS011;70907;52.514;5.726;2023-06-22T13:55:44;12.63;;;11.20;;
81504;SDS011;70907;52.514;5.726;2023-06-22T13:58:09;13.00;;;10.20;;
81504;SDS011;70907;52.514;5.726;2023-06-22T14:00:34;16.57;;;11.30;;
81504;SDS011;70907;52.514;5.726;2023-06-22T14:03:00;16.23;;;11.70;;
81504;SDS011;70907;52.514;5.726;2023-06-22T14:05:25;15.83;;;12.20;;
81504;SDS011;70907;52.514;5.726;2023-06-22T14:07:51;18.07;;;13.80;;
81504;SDS011;70907;52.514;5.726;2023-06-22T14:10:17;17.55;;;13.32;;
81504;SDS011;70907;52.514;5.726;2023-06-22T14:12:42;19.77;;;14.55;;
81504;SDS011;70907;52.514;5.726;2023-06-22T14:15:07;16.57;;;14.33;;
81504;SDS011;70907;52.514;5.726;2023-06-22T14:17:33;21.65;;;13.38;;
81504;SDS011;70907;52.514;5.726;2023-06-22T14:19:58;17.63;;;13.60;;
81504;SDS011;70907;52.514;5.726;2023-06-22T14:22:23;18.40;;;13.77;;
81504;SDS011;70907;52.514;5.726;2023-06-22T14:24:49;21.85;;;14.80;;